Time;durP1;ratioP1;P1;durP2;ratioP2;P2;SDS_P1;SDS_P2;PMS_P1;PMS_P2;Temp;Humidity;BMP_temperature;BMP_pressure;BME280_temperature;BME280_humidity;BME280_pressure;Samples;Min_cycle;Max_cycle;Signal;HPM_P1;HPM_P2
2022/04/20 00:00:55;;;;;;;;;;;21.40;47.20;;;;;;5075990;28;19931;-46
2022/04/20 00:03:22;;;;;;;;;;;21.40;46.70;;;;;;5094199;28;20295;-44
2022/04/20 00:05:49;;;;;;;;;;;21.40;46.70;;;;;;5093846;28;19963;-48
2022/04/20 00:08:16;;;;;;;;;;;21.40;46.70;;;;;;5093807;28;19924;-46
2022/04/20 00:10:43;;;;;;;;;;;21.40;46.70;;;;;;5076472;28;19924;-49
2022/04/20 00:13:11;;;;;;;;;;;21.40;46.70;;;;;;5073587;28;19930;-47
2022/04/20 00:15:44;;;;;;;;;;;21.40;46.70;;;;;;5073896;28;19946;-48
2022/04/20 00:18:11;;;;;;;;;;;21.40;46.70;;;;;;5073509;28;19924;-47
2022/04/20 00:20:38;;;;;;;;;;;21.40;46.60;;;;;;5073738;28;20019;-45
2022/04/20 00:23:05;;;;;;;;;;;21.40;46.70;;;;;;5073179;28;20376;-52
2022/04/20 00:25:32;;;;;;;;;;;21.40;46.60;;;;;;5086851;28;20319;-49
2022/04/20 00:27:59;;;;;;;;;;;21.40;46.70;;;;;;5093911;28;20291;-44
2022/04/20 00:30:26;;;;;;;;;;;21.40;46.60;;;;;;5094923;28;19950;-52
2022/04/20 00:32:53;;;;;;;;;;;21.40;46.60;;;;;;5098024;28;20086;-46
2022/04/20 00:35:20;;;;;;;;;;;21.40;46.70;;;;;;5097705;28;19925;-52
2022/04/20 00:37:48;;;;;;;;;;;21.40;46.60;;;;;;5097950;28;19932;-50
2022/04/20 00:40:15;;;;;;;;;;;21.40;46.60;;;;;;5096985;28;19924;-51
2022/04/20 00:42:42;;;;;;;;;;;21.40;46.70;;;;;;5097534;28;19930;-49
2022/04/20 00:45:10;;;;;;;;;;;21.40;46.60;;;;;;5097522;28;20011;-47
2022/04/20 00:47:38;;;;;;;;;;;21.40;46.60;;;;;;5098320;28;20017;-45
2022/04/20 00:50:06;;;;;;;;;;;21.40;46.70;;;;;;5097675;28;19924;-46
2022/04/20 00:52:33;;;;;;;;;;;21.40;46.60;;;;;;5097383;28;19931;-48
2022/04/20 00:55:20;;;;;;;;;;;21.40;46.60;;;;;;5096745;28;20276;-44
2022/04/20 00:57:47;;;;;;;;;;;21.40;46.70;;;;;;5097297;28;19931;-49
2022/04/20 01:00:14;;;;;;;;;;;21.40;46.70;;;;;;5097532;28;20331;-48
2022/04/20 01:02:41;;;;;;;;;;;21.40;46.70;;;;;;5097186;28;19924;-51
2022/04/20 01:05:09;;;;;;;;;;;21.40;46.60;;;;;;5097174;28;20414;-50
2022/04/20 01:07:40;;;;;;;;;;;21.40;46.60;;;;;;5097080;28;20432;-45
2022/04/20 01:10:07;;;;;;;;;;;21.40;46.60;;;;;;5096406;28;20052;-45
2022/04/20 01:12:34;;;;;;;;;;;21.40;46.70;;;;;;5097006;28;19927;-51
2022/04/20 01:15:02;;;;;;;;;;;21.40;46.60;;;;;;5096964;28;19924;-45
2022/04/20 01:17:29;;;;;;;;;;;21.40;46.70;;;;;;5097195;28;19999;-50
2022/04/20 01:19:57;;;;;;;;;;;21.40;46.70;;;;;;5097175;28;19935;-45
2022/04/20 01:22:24;;;;;;;;;;;21.40;46.70;;;;;;5096662;28;19935;-50
2022/04/20 01:24:51;;;;;;;;;;;21.40;46.70;;;;;;5094879;28;19955;-51
2022/04/20 01:27:18;;;;;;;;;;;21.40;46.70;;;;;;5095776;28;19924;-51
2022/04/20 01:29:46;;;;;;;;;;;21.40;46.70;;;;;;5095366;28;19924;-49
2022/04/20 01:32:13;;;;;;;;;;;21.40;46.70;;;;;;5077876;28;19925;-52
2022/04/20 01:34:40;;;;;;;;;;;21.40;46.70;;;;;;5095686;28;19924;-48
2022/04/20 01:37:07;;;;;;;;;;;21.30;46.60;;;;;;5094012;28;20293;-51
2022/04/20 01:39:34;;;;;;;;;;;21.40;46.70;;;;;;5075399;28;19928;-44
2022/04/20 01:42:02;;;;;;;;;;;21.40;46.70;;;;;;5094682;28;20288;-44
2022/04/20 01:44:29;;;;;;;;;;;21.40;46.70;;;;;;5095290;28;19931;-43
2022/04/20 01:46:56;;;;;;;;;;;21.40;46.70;;;;;;5095223;28;19934;-43
2022/04/20 01:49:23;;;;;;;;;;;21.40;46.70;;;;;;5095434;28;19924;-45
2022/04/20 01:51:51;;;;;;;;;;;21.30;46.70;;;;;;5095072;28;19939;-44
2022/04/20 01:54:21;;;;;;;;;;;21.40;46.70;;;;;;5095287;28;20019;-51
2022/04/20 01:56:49;;;;;;;;;;;21.40;46.70;;;;;;5094429;28;19924;-45
2022/04/20 01:59:16;;;;;;;;;;;21.30;46.60;;;;;;5095010;28;19931;-43
2022/04/20 02:04:28;;;;;;;;;;;21.30;46.70;;;;;;5095300;28;20269;-51
2022/04/20 02:06:56;;;;;;;;;;;21.30;46.70;;;;;;5094922;28;19930;-48
2022/04/20 02:09:24;;;;;;;;;;;21.30;46.70;;;;;;5094907;28;19930;-52
2022/04/20 02:11:51;;;;;;;;;;;21.30;46.70;;;;;;5093974;28;19924;-51
2022/04/20 02:14:18;;;;;;;;;;;21.30;46.70;;;;;;5094831;28;19924;-51
2022/04/20 02:16:45;;;;;;;;;;;21.30;46.70;;;;;;5094760;28;19924;-50
2022/04/20 02:19:12;;;;;;;;;;;21.30;46.70;;;;;;5094943;28;20007;-48
2022/04/20 02:21:39;;;;;;;;;;;21.30;46.70;;;;;;5094842;28;19924;-52
2022/04/20 02:24:07;;;;;;;;;;;21.30;46.70;;;;;;5048410;28;881312;-47
2022/04/20 02:26:33;;;;;;;;;;;21.30;46.70;;;;;;5092015;28;20295;-50
2022/04/20 02:29:00;;;;;;;;;;;21.30;46.70;;;;;;5095562;28;19924;-50
2022/04/20 02:31:28;;;;;;;;;;;21.30;46.70;;;;;;5095457;28;19924;-49
2022/04/20 02:33:55;;;;;;;;;;;21.30;46.70;;;;;;5095414;28;20380;-50
2022/04/20 02:36:23;;;;;;;;;;;21.30;46.70;;;;;;5095421;28;20015;-53
2022/04/20 02:38:50;;;;;;;;;;;21.30;46.70;;;;;;5095378;28;19931;-50
2022/04/20 02:41:17;;;;;;;;;;;21.30;46.70;;;;;;5094393;28;20011;-53
2022/04/20 02:43:44;;;;;;;;;;;21.30;46.70;;;;;;5095245;28;19935;-49
2022/04/20 02:46:11;;;;;;;;;;;21.30;46.70;;;;;;5095211;28;19924;-44
2022/04/20 02:48:40;;;;;;;;;;;21.30;46.70;;;;;;5095463;28;19924;-47
2022/04/20 02:51:08;;;;;;;;;;;21.30;46.70;;;;;;5095265;28;20299;-47
2022/04/20 02:53:35;;;;;;;;;;;21.30;46.70;;;;;;5094486;28;19928;-52
2022/04/20 02:56:02;;;;;;;;;;;21.30;46.70;;;;;;5094578;28;19924;-48
2022/04/20 02:58:29;;;;;;;;;;;21.30;46.80;;;;;;5094876;28;19924;-44
2022/04/20 03:00:56;;;;;;;;;;;21.30;46.80;;;;;;5094858;28;19975;-50
2022/04/20 03:03:23;;;;;;;;;;;21.30;46.80;;;;;;5095163;28;19974;-46
2022/04/20 03:05:51;;;;;;;;;;;21.30;46.80;;;;;;5095085;28;19924;-50
2022/04/20 03:08:18;;;;;;;;;;;21.30;46.80;;;;;;5095096;28;19930;-45
2022/04/20 03:10:45;;;;;;;;;;;21.30;46.90;;;;;;5094048;28;19940;-51
2022/04/20 03:13:12;;;;;;;;;;;21.30;46.80;;;;;;5094705;28;20102;-52
2022/04/20 03:15:39;;;;;;;;;;;21.30;46.80;;;;;;5094965;28;20383;-44
2022/04/20 03:18:06;;;;;;;;;;;21.30;46.80;;;;;;5094570;28;19924;-46
2022/04/20 03:20:33;;;;;;;;;;;21.30;46.80;;;;;;5094727;28;19999;-45
2022/04/20 03:23:00;;;;;;;;;;;21.30;46.80;;;;;;5094294;28;19924;-44
2022/04/20 03:25:28;;;;;;;;;;;21.30;46.80;;;;;;5094482;28;19931;-44
2022/04/20 03:27:55;;;;;;;;;;;21.30;46.80;;;;;;5092353;28;20323;-51
2022/04/20 03:30:22;;;;;;;;;;;21.30;46.80;;;;;;5056473;28;19924;-45
2022/04/20 03:32:49;;;;;;;;;;;21.30;46.80;;;;;;5074066;28;19925;-45
2022/04/20 03:35:16;;;;;;;;;;;21.30;46.80;;;;;;5074065;28;19930;-44
2022/04/20 03:37:43;;;;;;;;;;;21.20;46.70;;;;;;5074046;28;19924;-43
2022/04/20 03:40:10;;;;;;;;;;;21.30;46.70;;;;;;5074291;28;19947;-50
2022/04/20 03:42:37;;;;;;;;;;;21.30;46.80;;;;;;5087226;28;19970;-45
2022/04/20 03:45:07;;;;;;;;;;;21.20;46.70;;;;;;5094438;28;20295;-49
2022/04/20 03:47:35;;;;;;;;;;;21.30;46.80;;;;;;5094430;28;19924;-47
2022/04/20 03:50:02;;;;;;;;;;;21.30;46.80;;;;;;5094301;28;19930;-51
2022/04/20 03:52:30;;;;;;;;;;;21.30;46.80;;;;;;5094234;28;20298;-44
2022/04/20 03:54:57;;;;;;;;;;;21.30;46.70;;;;;;5093908;28;20019;-50
2022/04/20 03:57:24;;;;;;;;;;;21.30;46.70;;;;;;5093028;28;19924;-49
2022/04/20 03:59:51;;;;;;;;;;;21.30;46.70;;;;;;5094229;28;19924;-50
2022/04/20 04:02:18;;;;;;;;;;;21.30;46.70;;;;;;5094215;28;19947;-51
2022/04/20 04:04:45;;;;;;;;;;;21.30;46.70;;;;;;5094035;28;20326;-45
2022/04/20 04:07:12;;;;;;;;;;;21.30;46.70;;;;;;5093849;28;19924;-45
2022/04/20 04:09:39;;;;;;;;;;;21.30;46.70;;;;;;5093779;28;20019;-50
2022/04/20 04:12:07;;;;;;;;;;;21.30;46.70;;;;;;5092754;28;20380;-48
2022/04/20 04:14:38;;;;;;;;;;;21.30;46.70;;;;;;5094075;28;19931;-45
2022/04/20 04:17:06;;;;;;;;;;;21.20;46.70;;;;;;5093702;28;19970;-49
2022/04/20 04:19:34;;;;;;;;;;;21.30;46.70;;;;;;5093700;28;20391;-48
2022/04/20 04:22:02;;;;;;;;;;;21.30;46.70;;;;;;5093870;28;19931;-49
2022/04/20 04:24:35;;;;;;;;;;;21.30;46.70;;;;;;5093542;28;19932;-44
2022/04/20 04:27:03;;;;;;;;;;;21.30;46.70;;;;;;5093072;28;20346;-43
2022/04/20 04:29:34;;;;;;;;;;;21.30;46.70;;;;;;5093637;28;19931;-44
2022/04/20 04:32:01;;;;;;;;;;;21.30;46.70;;;;;;5093842;28;19924;-49
2022/04/20 04:34:29;;;;;;;;;;;21.30;46.70;;;;;;5093898;28;19931;-47
2022/04/20 04:36:57;;;;;;;;;;;21.30;46.70;;;;;;5093755;28;19989;-44
2022/04/20 04:39:28;;;;;;;;;;;21.30;46.70;;;;;;5093806;28;19924;-44
2022/04/20 04:41:56;;;;;;;;;;;21.30;46.70;;;;;;5092622;28;19932;-46
2022/04/20 04:44:23;;;;;;;;;;;21.30;46.70;;;;;;5093465;28;19931;-45
2022/04/20 04:49:36;;;;;;;;;;;21.30;46.70;;;;;;5093450;28;19931;-49
2022/04/20 04:52:06;;;;;;;;;;;21.30;47.20;;;;;;5093552;28;19946;-45
2022/04/20 04:54:35;;;;;;;;;;;21.30;46.70;;;;;;5093339;28;20463;-45
2022/04/20 04:57:02;;;;;;;;;;;21.30;46.60;;;;;;5075063;28;20030;-48
2022/04/20 04:59:29;;;;;;;;;;;21.30;46.60;;;;;;5093676;28;20311;-47
2022/04/20 05:01:56;;;;;;;;;;;21.30;46.60;;;;;;5094106;28;19928;-51
2022/04/20 05:04:23;;;;;;;;;;;21.30;46.60;;;;;;5093603;28;20295;-52
2022/04/20 05:06:50;;;;;;;;;;;21.30;46.50;;;;;;5093258;28;19939;-45
2022/04/20 05:09:17;;;;;;;;;;;21.30;46.50;;;;;;5093445;28;19931;-44
2022/04/20 05:11:44;;;;;;;;;;;21.30;46.50;;;;;;5093100;28;19924;-44
2022/04/20 05:14:13;;;;;;;;;;;21.30;46.50;;;;;;5092284;28;20014;-47
2022/04/20 05:16:40;;;;;;;;;;;21.30;46.50;;;;;;5095087;28;19924;-46
2022/04/20 05:19:08;;;;;;;;;;;21.30;46.50;;;;;;5097102;28;19924;-46
2022/04/20 05:21:35;;;;;;;;;;;21.30;46.40;;;;;;5096512;28;19935;-50
2022/04/20 05:24:02;;;;;;;;;;;21.40;46.50;;;;;;5096458;28;19924;-52
2022/04/20 05:26:29;;;;;;;;;;;21.30;46.40;;;;;;5078799;28;19924;-52
2022/04/20 05:28:56;;;;;;;;;;;21.40;46.50;;;;;;5095752;28;20018;-52
2022/04/20 05:31:23;;;;;;;;;;;21.40;46.40;;;;;;5097041;28;19924;-51
2022/04/20 05:33:50;;;;;;;;;;;21.40;46.40;;;;;;5096888;28;19924;-53
2022/04/20 05:36:20;;;;;;;;;;;21.40;46.40;;;;;;5097367;28;20015;-46
2022/04/20 05:41:42;;;;;;;;;;;21.40;46.40;;;;;;5096239;28;19924;-47
2022/04/20 05:44:10;;;;;;;;;;;21.40;46.30;;;;;;5095536;28;19930;-50
2022/04/20 05:46:38;;;;;;;;;;;21.40;46.30;;;;;;5096276;28;19924;-45
2022/04/20 05:49:05;;;;;;;;;;;21.40;46.20;;;;;;5096185;28;19924;-45
2022/04/20 05:51:32;;;;;;;;;;;21.50;46.30;;;;;;5096066;28;19931;-44
2022/04/20 05:53:59;;;;;;;;;;;21.50;46.20;;;;;;5096177;28;19924;-44
2022/04/20 05:56:26;;;;;;;;;;;21.50;46.20;;;;;;5096030;28;19924;-46
2022/04/20 05:58:54;;;;;;;;;;;21.50;46.20;;;;;;5095380;28;20011;-52
2022/04/20 06:01:22;;;;;;;;;;;21.50;46.10;;;;;;5096555;28;19931;-53
2022/04/20 06:03:50;;;;;;;;;;;21.50;46.10;;;;;;5095800;28;20376;-51
2022/04/20 06:06:18;;;;;;;;;;;21.60;46.20;;;;;;5096182;28;19925;-51
2022/04/20 06:08:45;;;;;;;;;;;21.60;46.10;;;;;;5096418;28;19931;-52
2022/04/20 06:11:12;;;;;;;;;;;21.50;46.00;;;;;;5095959;28;19924;-51
2022/04/20 06:13:39;;;;;;;;;;;21.60;46.00;;;;;;5094783;28;19924;-45
2022/04/20 06:16:06;;;;;;;;;;;21.60;46.00;;;;;;5095449;28;19928;-48
2022/04/20 06:18:33;;;;;;;;;;;21.60;46.00;;;;;;5096022;28;19930;-53
2022/04/20 06:21:01;;;;;;;;;;;21.60;45.90;;;;;;5095500;28;20489;-49
2022/04/20 06:23:29;;;;;;;;;;;21.70;46.00;;;;;;5095069;28;19930;-52
2022/04/20 06:25:55;;;;;;;;;;;21.60;45.80;;;;;;5095696;28;19935;-52
2022/04/20 06:28:24;;;;;;;;;;;21.70;46.00;;;;;;5093271;28;20010;-50
2022/04/20 06:30:52;;;;;;;;;;;21.70;45.90;;;;;;5095625;28;19928;-50
2022/04/20 06:33:21;;;;;;;;;;;21.70;45.90;;;;;;5095707;28;19947;-48
2022/04/20 06:35:49;;;;;;;;;;;21.70;45.90;;;;;;5095250;28;19931;-47
2022/04/20 06:38:16;;;;;;;;;;;21.70;45.90;;;;;;5095175;28;20403;-49
2022/04/20 06:40:43;;;;;;;;;;;21.70;45.90;;;;;;5095506;28;20291;-51
2022/04/20 06:43:10;;;;;;;;;;;21.70;45.90;;;;;;5094548;28;21046;-47
2022/04/20 06:45:37;;;;;;;;;;;21.70;45.90;;;;;;5095206;28;19924;-48
2022/04/20 06:48:05;;;;;;;;;;;21.70;45.90;;;;;;5095444;28;20322;-47
2022/04/20 06:50:32;;;;;;;;;;;21.70;45.90;;;;;;5095126;28;19924;-46
2022/04/20 06:58:32;;;;;;;;;;;21.70;45.90;;;;;;5094327;28;19970;-50
2022/04/20 07:01:00;;;;;;;;;;;21.70;46.00;;;;;;5095234;28;19931;-46
2022/04/20 07:03:27;;;;;;;;;;;21.70;45.90;;;;;;5094866;28;19924;-50
2022/04/20 07:05:54;;;;;;;;;;;21.70;45.90;;;;;;5095056;28;19924;-47
2022/04/20 07:08:22;;;;;;;;;;;21.70;45.90;;;;;;5093999;28;19931;-49
2022/04/20 07:10:49;;;;;;;;;;;21.70;45.90;;;;;;5096580;28;20319;-50
2022/04/20 07:13:17;;;;;;;;;;;21.70;45.80;;;;;;5102909;28;20287;-46
2022/04/20 07:15:45;;;;;;;;;;;21.70;45.80;;;;;;5109267;28;19924;-46
2022/04/20 07:18:12;;;;;;;;;;;21.70;45.80;;;;;;5097675;28;19938;-43
2022/04/20 07:20:39;;;;;;;;;;;21.70;45.80;;;;;;5108642;28;20288;-43
2022/04/20 07:23:06;;;;;;;;;;;21.70;45.80;;;;;;5099331;28;19951;-45
2022/04/20 07:25:33;;;;;;;;;;;21.70;45.80;;;;;;5111260;28;19969;-48
2022/04/20 07:28:00;;;;;;;;;;;21.70;45.80;;;;;;5109644;28;19924;-43
2022/04/20 07:30:27;;;;;;;;;;;21.70;45.80;;;;;;5093723;28;20340;-46
2022/04/20 07:32:54;;;;;;;;;;;21.70;45.70;;;;;;5094115;28;19924;-52
2022/04/20 07:35:22;;;;;;;;;;;21.70;45.70;;;;;;5094325;28;20268;-45
2022/04/20 07:37:49;;;;;;;;;;;21.70;45.70;;;;;;5093596;28;20372;-45
2022/04/20 07:40:16;;;;;;;;;;;21.70;45.70;;;;;;5093630;28;19970;-46
2022/04/20 07:42:43;;;;;;;;;;;21.70;45.70;;;;;;5094036;28;19966;-45
2022/04/20 07:45:10;;;;;;;;;;;21.70;45.70;;;;;;5093131;28;19942;-44
2022/04/20 07:47:37;;;;;;;;;;;21.70;45.70;;;;;;5093935;28;19932;-44
2022/04/20 07:50:21;;;;;;;;;;;21.70;45.70;;;;;;5094311;28;19924;-48
2022/04/20 07:52:53;;;;;;;;;;;21.70;45.70;;;;;;5094189;28;19931;-45
2022/04/20 07:55:21;;;;;;;;;;;21.70;45.70;;;;;;5094178;28;20011;-46
2022/04/20 07:57:49;;;;;;;;;;;21.80;45.80;;;;;;5093732;28;19971;-46
2022/04/20 08:00:17;;;;;;;;;;;21.80;45.70;;;;;;5093258;28;20001;-46
2022/04/20 08:02:45;;;;;;;;;;;21.80;45.70;;;;;;5093751;28;19931;-51
2022/04/20 08:05:14;;;;;;;;;;;21.80;45.60;;;;;;5094096;28;19924;-46
2022/04/20 08:07:42;;;;;;;;;;;21.80;45.60;;;;;;5093891;28;19930;-51
2022/04/20 08:10:10;;;;;;;;;;;21.80;45.50;;;;;;5093924;28;19931;-49
2022/04/20 08:12:41;;;;;;;;;;;21.90;45.60;;;;;;5093583;28;19950;-51
2022/04/20 08:15:09;;;;;;;;;;;21.90;45.50;;;;;;5092914;28;19924;-48
2022/04/20 08:17:36;;;;;;;;;;;22.00;45.50;;;;;;5093847;28;19928;-49
2022/04/20 08:20:05;;;;;;;;;;;22.00;45.40;;;;;;5093658;28;19924;-50
2022/04/20 08:22:32;;;;;;;;;;;22.00;45.30;;;;;;5093571;28;19930;-50
2022/04/20 08:25:02;;;;;;;;;;;22.00;45.20;;;;;;5093993;28;20276;-45
2022/04/20 08:27:30;;;;;;;;;;;22.10;45.20;;;;;;5093932;28;19954;-53
2022/04/20 08:29:57;;;;;;;;;;;22.10;45.20;;;;;;5093017;28;19928;-46
2022/04/20 08:32:29;;;;;;;;;;;22.10;45.20;;;;;;5093777;28;19978;-48
2022/04/20 08:34:56;;;;;;;;;;;22.10;45.20;;;;;;5093507;28;20019;-50
2022/04/20 08:37:26;;;;;;;;;;;22.10;45.10;;;;;;5093670;28;19934;-49
2022/04/20 08:39:53;;;;;;;;;;;22.10;45.10;;;;;;5093798;28;19947;-48
2022/04/20 08:42:22;;;;;;;;;;;22.20;45.20;;;;;;5093705;28;19924;-47
2022/04/20 08:44:50;;;;;;;;;;;22.20;45.10;;;;;;5092440;28;19924;-45
2022/04/20 08:47:22;;;;;;;;;;;22.20;45.10;;;;;;5094755;28;19924;-51
2022/04/20 08:49:50;;;;;;;;;;;22.20;45.10;;;;;;5093710;28;19947;-44
2022/04/20 08:52:38;;;;;;;;;;;22.20;45.00;;;;;;5096288;28;19951;-48
2022/04/20 08:55:07;;;;;;;;;;;22.20;45.00;;;;;;5097321;28;19924;-50
2022/04/20 08:57:35;;;;;;;;;;;22.20;44.90;;;;;;5097561;28;19993;-49
2022/04/20 09:00:12;;;;;;;;;;;22.20;44.90;;;;;;5096423;28;20018;-48
2022/04/20 09:02:40;;;;;;;;;;;22.20;44.90;;;;;;5097179;28;19924;-46
2022/04/20 09:05:07;;;;;;;;;;;22.30;45.00;;;;;;5097350;28;19927;-46
2022/04/20 09:07:39;;;;;;;;;;;22.30;45.00;;;;;;5080160;28;20320;-44
2022/04/20 09:10:06;;;;;;;;;;;22.30;45.00;;;;;;5096964;28;19932;-46
2022/04/20 09:12:33;;;;;;;;;;;22.30;45.00;;;;;;5097145;28;19924;-52
2022/04/20 09:15:01;;;;;;;;;;;22.30;45.00;;;;;;5095956;28;19924;-52
2022/04/20 09:17:31;;;;;;;;;;;22.30;44.90;;;;;;5096786;28;19930;-49
2022/04/20 09:19:58;;;;;;;;;;;22.30;44.90;;;;;;5097196;28;19924;-47
2022/04/20 09:22:27;;;;;;;;;;;22.30;44.90;;;;;;5097196;28;19924;-48
2022/04/20 09:24:59;;;;;;;;;;;22.30;44.90;;;;;;5096771;28;19930;-44
2022/04/20 09:27:27;;;;;;;;;;;22.30;44.90;;;;;;5096736;28;19924;-53
2022/04/20 09:29:55;;;;;;;;;;;22.40;45.00;;;;;;5096592;28;19951;-49
2022/04/20 09:32:37;;;;;;;;;;;22.30;44.90;;;;;;5096552;28;19975;-53
2022/04/20 09:35:06;;;;;;;;;;;22.40;45.00;;;;;;5096939;28;19924;-53
2022/04/20 09:37:34;;;;;;;;;;;22.30;44.90;;;;;;5096559;28;19931;-48
2022/04/20 09:40:04;;;;;;;;;;;22.40;45.00;;;;;;5096526;28;19924;-52
2022/04/20 09:42:33;;;;;;;;;;;22.40;45.00;;;;;;5096747;28;19969;-48
2022/04/20 09:45:02;;;;;;;;;;;22.40;45.00;;;;;;5095967;28;19969;-53
2022/04/20 09:50:34;;;;;;;;;;;22.40;45.00;;;;;;5096583;28;20003;-50
2022/04/20 09:53:05;;;;;;;;;;;22.40;45.00;;;;;;5096297;28;19924;-53
2022/04/20 09:55:37;;;;;;;;;;;22.40;45.00;;;;;;5096805;28;20338;-44
2022/04/20 09:58:19;;;;;;;;;;;22.40;45.00;;;;;;5096114;28;19931;-48
2022/04/20 10:00:50;;;;;;;;;;;22.40;45.00;;;;;;5095370;28;19933;-50
2022/04/20 10:03:24;;;;;;;;;;;22.40;45.00;;;;;;5095596;28;19928;-52
2022/04/20 10:05:52;;;;;;;;;;;22.40;44.90;;;;;;5096295;28;20298;-47
2022/04/20 10:08:23;;;;;;;;;;;22.40;44.90;;;;;;5095955;28;19974;-51
2022/04/20 10:10:52;;;;;;;;;;;22.40;44.90;;;;;;5095936;28;19924;-52
2022/04/20 10:13:19;;;;;;;;;;;22.40;44.90;;;;;;5095788;28;19924;-48
2022/04/20 10:16:05;;;;;;;;;;;22.40;44.90;;;;;;5095219;28;20260;-50
2022/04/20 10:18:34;;;;;;;;;;;22.40;44.90;;;;;;5095822;28;19924;-44
2022/04/20 10:21:02;;;;;;;;;;;22.40;44.90;;;;;;5095685;28;19930;-53
2022/04/20 10:23:29;;;;;;;;;;;22.50;45.00;;;;;;5095338;28;19924;-46
2022/04/20 10:26:00;;;;;;;;;;;22.50;45.00;;;;;;5095663;28;19928;-52
2022/04/20 10:28:42;;;;;;;;;;;22.50;45.00;;;;;;5095983;28;20034;-47
2022/04/20 10:31:12;;;;;;;;;;;22.50;45.00;;;;;;5094704;28;19924;-47
2022/04/20 10:33:41;;;;;;;;;;;22.50;44.90;;;;;;5095461;28;19924;-53
2022/04/20 10:36:14;;;;;;;;;;;22.50;44.90;;;;;;5095814;28;19993;-53
2022/04/20 10:38:42;;;;;;;;;;;22.50;44.90;;;;;;5095366;28;19925;-52
2022/04/20 10:41:11;;;;;;;;;;;22.50;44.90;;;;;;5095365;28;19925;-52
2022/04/20 10:43:39;;;;;;;;;;;22.50;44.90;;;;;;5095267;28;19931;-52
2022/04/20 10:46:19;;;;;;;;;;;22.50;44.90;;;;;;5094593;28;19931;-52
2022/04/20 10:48:50;;;;;;;;;;;22.50;44.80;;;;;;5095220;28;19924;-48
2022/04/20 10:51:22;;;;;;;;;;;22.60;44.90;;;;;;5095348;28;20386;-51
2022/04/20 10:53:51;;;;;;;;;;;22.60;44.90;;;;;;5095095;28;19931;-50
2022/04/20 10:56:19;;;;;;;;;;;22.60;44.90;;;;;;5095377;28;19927;-51
2022/04/20 10:59:07;;;;;;;;;;;22.60;44.90;;;;;;5095000;28;19931;-50
2022/04/20 11:01:53;;;;;;;;;;;22.60;44.90;;;;;;5094137;28;19932;-45
2022/04/20 11:04:30;;;;;;;;;;;22.60;44.90;;;;;;5095251;28;20333;-51
2022/04/20 11:07:04;;;;;;;;;;;22.60;44.90;;;;;;5094862;28;19973;-49
2022/04/20 11:09:44;;;;;;;;;;;22.60;44.90;;;;;;5095184;28;19931;-53
2022/04/20 11:21:03;;;;;;;;;;;22.70;44.90;;;;;;5094503;28;20014;-52
2022/04/20 11:23:49;;;;;;;;;;;22.70;44.90;;;;;;5094314;28;20011;-52
2022/04/20 11:26:24;;;;;;;;;;;22.70;44.90;;;;;;5094793;28;19924;-52
2022/04/20 11:28:52;;;;;;;;;;;22.60;44.80;;;;;;5094485;28;20367;-49
2022/04/20 11:31:19;;;;;;;;;;;22.70;44.90;;;;;;5093787;28;19935;-50
2022/04/20 11:33:47;;;;;;;;;;;22.70;44.90;;;;;;5094593;28;19928;-48
2022/04/20 11:36:21;;;;;;;;;;;22.70;44.90;;;;;;5094673;28;19924;-45
2022/04/20 11:38:49;;;;;;;;;;;22.70;44.90;;;;;;5094557;28;19931;-48
2022/04/20 11:41:17;;;;;;;;;;;22.70;44.90;;;;;;5094217;28;19924;-46
2022/04/20 11:43:44;;;;;;;;;;;22.70;44.80;;;;;;5094981;28;19924;-44
2022/04/20 11:46:11;;;;;;;;;;;22.70;44.80;;;;;;5093265;28;19969;-45
2022/04/20 11:48:48;;;;;;;;;;;22.80;44.90;;;;;;5094089;28;19924;-44
2022/04/20 11:51:18;;;;;;;;;;;22.70;44.80;;;;;;5094079;28;19924;-44
2022/04/20 11:53:46;;;;;;;;;;;22.80;44.90;;;;;;5093910;28;19924;-47
2022/04/20 11:56:14;;;;;;;;;;;22.70;44.80;;;;;;5093981;28;19924;-45
2022/04/20 11:58:48;;;;;;;;;;;22.80;44.90;;;;;;5093954;28;19931;-46
2022/04/20 12:01:15;;;;;;;;;;;22.80;44.90;;;;;;5093674;28;19924;-49
2022/04/20 12:03:44;;;;;;;;;;;22.80;44.90;;;;;;5093869;28;20376;-51
2022/04/20 12:06:12;;;;;;;;;;;22.80;44.80;;;;;;5093969;28;19931;-51
2022/04/20 12:08:42;;;;;;;;;;;22.80;44.90;;;;;;5094107;28;19924;-47
2022/04/20 12:11:10;;;;;;;;;;;22.80;44.90;;;;;;5094049;28;19973;-47
2022/04/20 12:13:39;;;;;;;;;;;22.80;44.90;;;;;;5094019;28;19971;-48
2022/04/20 12:16:10;;;;;;;;;;;22.80;44.90;;;;;;5093788;28;20015;-45
2022/04/20 12:18:42;;;;;;;;;;;22.80;44.80;;;;;;5093353;28;19950;-45
2022/04/20 12:21:27;;;;;;;;;;;22.80;44.80;;;;;;5093440;28;19932;-49
2022/04/20 12:23:55;;;;;;;;;;;22.80;45.40;;;;;;5093730;28;19950;-45
2022/04/20 12:26:31;;;;;;;;;;;22.80;44.80;;;;;;5097132;28;19924;-47
2022/04/20 12:28:59;;;;;;;;;;;22.90;44.90;;;;;;5098256;28;19924;-49
2022/04/20 12:31:26;;;;;;;;;;;22.80;44.80;;;;;;5098172;28;19924;-48
2022/04/20 12:34:19;;;;;;;;;;;22.90;44.90;;;;;;5096827;28;19924;-49
2022/04/20 12:36:51;;;;;;;;;;;22.80;44.80;;;;;;5095094;28;19924;-46
2022/04/20 12:39:35;;;;;;;;;;;22.90;44.90;;;;;;5097947;28;20307;-46
2022/04/20 12:42:06;;;;;;;;;;;22.90;44.90;;;;;;5097939;28;19927;-50
2022/04/20 12:44:39;;;;;;;;;;;22.90;44.90;;;;;;5097493;28;20372;-46
2022/04/20 12:47:06;;;;;;;;;;;22.90;45.50;;;;;;5096767;28;19935;-47
2022/04/20 12:49:37;;;;;;;;;;;22.90;44.80;;;;;;5097486;28;19924;-44
2022/04/20 12:52:17;;;;;;;;;;;22.90;44.80;;;;;;5097408;28;19924;-45
2022/04/20 12:54:52;;;;;;;;;;;23.00;44.90;;;;;;5097443;28;19924;-46
2022/04/20 13:02:57;;;;;;;;;;;23.00;45.50;;;;;;5097003;28;19931;-46
2022/04/20 13:05:25;;;;;;;;;;;22.90;44.80;;;;;;5097501;28;19931;-49
2022/04/20 13:07:52;;;;;;;;;;;22.90;44.80;;;;;;5097472;28;20276;-49
2022/04/20 13:10:19;;;;;;;;;;;23.00;44.90;;;;;;5097421;28;19955;-46
2022/04/20 13:12:50;;;;;;;;;;;23.00;44.90;;;;;;5096918;28;19931;-45
2022/04/20 13:15:18;;;;;;;;;;;23.00;44.90;;;;;;5097011;28;20011;-48
2022/04/20 13:17:47;;;;;;;;;;;23.00;44.90;;;;;;5096390;28;19924;-46
2022/04/20 13:20:16;;;;;;;;;;;22.90;44.80;;;;;;5096860;28;19924;-44
2022/04/20 13:22:43;;;;;;;;;;;23.00;44.90;;;;;;5096884;28;19931;-48
2022/04/20 13:27:56;;;;;;;;;;;23.00;44.80;;;;;;5097152;28;19931;-47
2022/04/20 13:30:27;;;;;;;;;;;23.00;44.90;;;;;;5096702;28;19924;-47
2022/04/20 13:32:55;;;;;;;;;;;23.00;44.80;;;;;;5096564;28;19931;-48
2022/04/20 13:35:23;;;;;;;;;;;23.00;44.80;;;;;;5096672;28;19924;-44
2022/04/20 13:37:51;;;;;;;;;;;23.00;44.80;;;;;;5095900;28;19925;-50
2022/04/20 13:40:18;;;;;;;;;;;23.00;44.80;;;;;;5096572;28;19928;-44
2022/04/20 13:42:45;;;;;;;;;;;23.00;44.80;;;;;;5096544;28;19924;-44
2022/04/20 13:45:12;;;;;;;;;;;23.00;44.90;;;;;;5096753;28;20314;-45
2022/04/20 13:47:39;;;;;;;;;;;23.00;44.90;;;;;;5095740;28;19928;-45
2022/04/20 13:50:06;;;;;;;;;;;23.00;44.80;;;;;;5096722;28;19933;-51
2022/04/20 13:52:37;;;;;;;;;;;23.00;44.90;;;;;;5096070;28;19931;-52
2022/04/20 13:55:05;;;;;;;;;;;23.00;44.80;;;;;;5078599;28;19924;-44
2022/04/20 13:57:32;;;;;;;;;;;23.00;44.80;;;;;;5096495;28;20291;-48
2022/04/20 14:00:00;;;;;;;;;;;23.00;44.80;;;;;;5096111;28;19969;-45
2022/04/20 14:02:27;;;;;;;;;;;23.00;44.80;;;;;;5096139;28;19960;-51
2022/04/20 14:04:55;;;;;;;;;;;23.00;44.80;;;;;;5095552;28;20322;-52
2022/04/20 14:07:22;;;;;;;;;;;23.00;44.80;;;;;;5096282;28;19924;-47
2022/04/20 14:09:49;;;;;;;;;;;23.00;44.90;;;;;;5095896;28;20010;-53
2022/04/20 14:12:17;;;;;;;;;;;23.00;44.80;;;;;;5078268;28;19971;-45
2022/04/20 14:14:45;;;;;;;;;;;23.00;44.90;;;;;;5095777;28;19939;-44
2022/04/20 14:17:15;;;;;;;;;;;23.00;44.80;;;;;;5096099;28;20257;-47
2022/04/20 14:19:44;;;;;;;;;;;23.00;45.50;;;;;;5094794;28;19924;-45
2022/04/20 14:22:13;;;;;;;;;;;23.00;44.80;;;;;;5095855;28;19924;-52
2022/04/20 14:24:41;;;;;;;;;;;23.00;44.90;;;;;;5095502;28;19930;-44
2022/04/20 14:32:39;;;;;;;;;;;23.00;44.90;;;;;;5095364;28;20296;-45
2022/04/20 14:35:08;;;;;;;;;;;23.00;45.50;;;;;;5094613;28;19924;-48
2022/04/20 14:37:36;;;;;;;;;;;23.00;44.90;;;;;;5096237;28;19931;-44
2022/04/20 14:40:04;;;;;;;;;;;23.00;44.90;;;;;;5095357;28;19924;-44
2022/04/20 14:42:32;;;;;;;;;;;23.00;44.90;;;;;;5095544;28;20333;-46
2022/04/20 14:45:04;;;;;;;;;;;23.00;44.90;;;;;;5095296;28;19925;-44
2022/04/20 14:47:31;;;;;;;;;;;23.00;44.90;;;;;;5095492;28;19928;-47
2022/04/20 14:49:59;;;;;;;;;;;23.00;44.90;;;;;;5093484;28;20394;-49
2022/04/20 14:52:26;;;;;;;;;;;23.00;44.90;;;;;;5094983;28;19924;-48
2022/04/20 14:54:53;;;;;;;;;;;23.00;44.90;;;;;;5095284;28;19924;-44
2022/04/20 14:57:40;;;;;;;;;;;23.00;44.90;;;;;;5094936;28;19931;-49
2022/04/20 15:00:07;;;;;;;;;;;23.00;44.90;;;;;;5095568;28;19989;-48
2022/04/20 15:02:38;;;;;;;;;;;23.00;44.90;;;;;;5094984;28;19924;-50
2022/04/20 15:05:05;;;;;;;;;;;23.00;45.00;;;;;;5093975;28;19978;-48